createdAt,value
2022-11-06T00:00:45.419Z,60.72
2022-11-06T00:03:12.315Z,40.72
2022-11-06T00:06:01.599Z,38.58
2022-11-06T00:08:34.347Z,34.10
2022-11-06T00:11:02.032Z,33.55
2022-11-06T00:13:29.325Z,38.28
2022-11-06T00:15:55.979Z,40.13
2022-11-06T00:18:25.998Z,40.85
2022-11-06T00:20:52.625Z,38.20
2022-11-06T00:23:19.173Z,38.20
2022-11-06T00:25:45.843Z,45.58
2022-11-06T00:28:12.769Z,33.80
2022-11-06T00:30:39.699Z,35.45
2022-11-06T00:33:06.425Z,40.75
2022-11-06T00:35:33.342Z,30.85
2022-11-06T00:37:59.980Z,40.38
2022-11-06T00:40:26.580Z,38.97
2022-11-06T00:42:57.903Z,34.38
2022-11-06T00:45:26.003Z,34.97
2022-11-06T00:47:52.676Z,37.67
2022-11-06T00:50:19.558Z,36.25
2022-11-06T00:52:46.260Z,36.03
2022-11-06T00:55:12.877Z,38.30
2022-11-06T00:57:39.558Z,43.47
2022-11-06T01:00:07.308Z,32.92
2022-11-06T01:02:34.017Z,30.35
2022-11-06T01:05:00.899Z,39.60
2022-11-06T01:07:27.453Z,33.08
2022-11-06T01:09:54.177Z,36.75
2022-11-06T01:12:20.983Z,30.98
2022-11-06T01:14:47.619Z,33.60
2022-11-06T01:17:14.464Z,35.95
2022-11-06T01:19:41.381Z,39.40
2022-11-06T01:22:07.954Z,33.90
2022-11-06T01:24:35.188Z,32.35
2022-11-06T01:27:25.539Z,31.63
2022-11-06T01:29:48.910Z,31.65
2022-11-06T01:32:15.607Z,34.47
2022-11-06T01:34:42.265Z,32.90
2022-11-06T01:37:13.252Z,33.85
2022-11-06T01:39:41.072Z,37.35
2022-11-06T01:42:07.628Z,30.25
2022-11-06T01:44:43.384Z,30.52
2022-11-06T01:47:27.726Z,31.98
2022-11-06T01:50:00.671Z,37.22
2022-11-06T01:52:29.809Z,31.80
2022-11-06T01:55:15.601Z,28.35
2022-11-06T01:57:43.158Z,31.90
2022-11-06T02:00:10.608Z,34.38
2022-11-06T02:02:38.580Z,33.60
2022-11-06T02:05:05.998Z,34.83
2022-11-06T02:07:33.933Z,37.90
2022-11-06T02:10:00.523Z,36.85
2022-11-06T02:12:47.643Z,48.10
2022-11-06T02:15:33.431Z,44.13
2022-11-06T02:18:02.883Z,42.90
2022-11-06T02:21:06.485Z,42.45
2022-11-06T02:24:11.091Z,36.55
2022-11-06T02:26:50.204Z,36.85
2022-11-06T02:29:31.485Z,42.58
2022-11-06T02:32:02.033Z,37.75
2022-11-06T02:34:30.258Z,36.03
2022-11-06T02:37:02.272Z,33.70
2022-11-06T02:39:30.971Z,29.80
2022-11-06T02:41:59.486Z,29.30
2022-11-06T02:44:30.337Z,29.67
2022-11-06T02:47:02.033Z,32.85
2022-11-06T02:49:59.309Z,30.73
2022-11-06T02:52:32.071Z,30.45
2022-11-06T02:55:07.759Z,29.80
2022-11-06T02:57:39.269Z,27.83
2022-11-06T03:00:09.872Z,31.98
2022-11-06T03:02:41.919Z,32.88
2022-11-06T03:05:12.011Z,34.25
2022-11-06T03:08:03.569Z,36.10
2022-11-06T03:10:39.240Z,35.78
2022-11-06T03:13:19.239Z,36.85
2022-11-06T03:15:45.884Z,34.13
2022-11-06T03:18:55.861Z,34.60
2022-11-06T03:21:49.016Z,30.90
2022-11-06T03:24:33.990Z,25.85
2022-11-06T03:27:09.475Z,30.38
2022-11-06T03:29:38.881Z,32.17
2022-11-06T03:32:17.763Z,33.10
2022-11-06T03:34:52.557Z,33.40
2022-11-06T03:37:26.395Z,32.13
2022-11-06T03:39:56.800Z,32.63
2022-11-06T03:42:27.785Z,30.33
2022-11-06T03:45:08.562Z,27.95
2022-11-06T03:47:43.745Z,27.05
2022-11-06T03:50:28.468Z,27.13
2022-11-06T03:53:05.557Z,25.13
2022-11-06T03:55:39.043Z,25.35
2022-11-06T03:58:11.424Z,24.65
2022-11-06T04:00:41.625Z,28.40
2022-11-06T04:03:37.184Z,26.70
2022-11-06T04:06:17.498Z,21.15
2022-11-06T04:09:05.690Z,25.48
2022-11-06T04:11:54.849Z,23.85
2022-11-06T04:14:26.113Z,21.60
2022-11-06T04:16:57.596Z,24.42
2022-11-06T04:19:24.348Z,21.48
2022-11-06T04:22:03.092Z,24.10
2022-11-06T04:24:57.384Z,22.25
2022-11-06T04:27:51.687Z,20.50
2022-11-06T04:30:18.998Z,21.02
2022-11-06T04:32:59.778Z,21.90
2022-11-06T04:35:35.873Z,21.38
2022-11-06T04:38:17.787Z,19.92
2022-11-06T04:41:02.588Z,22.95
2022-11-06T04:43:40.986Z,20.90
2022-11-06T04:46:11.265Z,21.33
2022-11-06T04:48:39.786Z,22.55
2022-11-06T04:51:10.638Z,19.98
2022-11-06T04:53:38.174Z,21.58
2022-11-06T04:56:12.304Z,22.83
2022-11-06T04:58:39.331Z,21.30
2022-11-06T05:01:06.265Z,22.63
2022-11-06T05:03:33.343Z,25.27
2022-11-06T05:06:00.159Z,21.00
2022-11-06T05:08:26.803Z,22.60
2022-11-06T05:10:53.642Z,22.48
2022-11-06T05:13:20.905Z,23.65
2022-11-06T05:15:47.635Z,23.30
2022-11-06T05:18:14.686Z,21.88
2022-11-06T05:20:41.572Z,22.10
2022-11-06T05:23:08.202Z,23.85
2022-11-06T05:25:38.435Z,22.42
2022-11-06T05:28:07.228Z,21.38
2022-11-06T05:30:35.799Z,25.65
2022-11-06T05:33:02.853Z,25.25
2022-11-06T05:35:29.526Z,25.75
2022-11-06T05:38:03.039Z,23.88
2022-11-06T05:40:30.459Z,25.08
2022-11-06T05:42:57.222Z,22.80
2022-11-06T05:45:23.840Z,20.17
2022-11-06T05:47:50.483Z,25.42
2022-11-06T05:50:17.262Z,24.27
2022-11-06T05:52:43.885Z,20.90
2022-11-06T05:55:14.871Z,23.98
2022-11-06T05:57:42.333Z,22.98
2022-11-06T06:00:11.330Z,22.90
2022-11-06T06:02:38.397Z,22.27
2022-11-06T06:05:06.391Z,21.35
2022-11-06T06:07:34.137Z,19.55
2022-11-06T06:10:00.854Z,18.17
2022-11-06T06:12:27.734Z,18.25
2022-11-06T06:14:54.545Z,16.15
2022-11-06T06:17:21.721Z,17.50
2022-11-06T06:19:48.787Z,18.75
2022-11-06T06:22:15.456Z,17.27
2022-11-06T06:24:42.278Z,18.65
2022-11-06T06:27:09.453Z,17.50
2022-11-06T06:29:36.078Z,18.00
2022-11-06T06:32:04.502Z,18.58
2022-11-06T06:34:31.357Z,16.00
2022-11-06T06:36:58.025Z,18.33
2022-11-06T06:39:24.641Z,18.38
2022-11-06T06:41:51.432Z,19.10
2022-11-06T06:44:18.143Z,16.85
2022-11-06T06:46:44.770Z,16.77
2022-11-06T06:49:11.621Z,17.70
2022-11-06T06:51:38.464Z,16.90
2022-11-06T06:54:05.175Z,19.98
2022-11-06T06:56:31.986Z,18.58
2022-11-06T06:58:58.785Z,25.02
2022-11-06T07:01:25.820Z,36.85
2022-11-06T07:03:52.687Z,20.88
2022-11-06T07:06:19.979Z,25.23
2022-11-06T07:08:46.804Z,21.10
2022-11-06T07:11:13.943Z,31.00
2022-11-06T07:13:40.643Z,22.58
2022-11-06T07:16:10.143Z,22.80
2022-11-06T07:18:37.753Z,24.48
2022-11-06T07:21:06.285Z,21.80
2022-11-06T07:23:34.413Z,20.80
2022-11-06T07:26:01.258Z,21.30
2022-11-06T07:28:27.991Z,22.98
2022-11-06T07:31:02.062Z,39.88
2022-11-06T07:33:29.331Z,34.65
2022-11-06T07:35:56.119Z,58.22
2022-11-06T07:38:22.722Z,47.58
2022-11-06T07:40:49.558Z,56.30
2022-11-06T07:43:16.185Z,50.78
2022-11-06T07:45:42.796Z,61.60
2022-11-06T07:48:09.568Z,61.90
2022-11-06T07:50:36.185Z,63.75
2022-11-06T07:53:03.727Z,60.88
2022-11-06T07:55:30.480Z,55.50
2022-11-06T07:57:58.827Z,46.17
2022-11-06T08:00:25.606Z,38.47
2022-11-06T08:02:53.467Z,39.47
2022-11-06T08:05:20.672Z,40.05
2022-11-06T08:07:47.310Z,45.85
2022-11-06T08:10:14.239Z,33.95
2022-11-06T08:12:40.898Z,33.03
2022-11-06T08:15:07.819Z,36.90
2022-11-06T08:17:34.491Z,35.10
2022-11-06T08:20:01.095Z,34.22
2022-11-06T08:22:27.689Z,32.17
2022-11-06T08:24:54.849Z,29.75
2022-11-06T08:27:21.517Z,28.13
2022-11-06T08:29:48.066Z,26.35
2022-11-06T08:32:14.866Z,25.92
2022-11-06T08:34:42.369Z,26.05
2022-11-06T08:37:10.722Z,27.70
2022-11-06T08:39:37.655Z,26.90
2022-11-06T08:42:05.557Z,26.55
2022-11-06T08:44:32.227Z,24.80
2022-11-06T08:46:59.062Z,24.27
2022-11-06T08:49:25.691Z,25.25
2022-11-06T08:51:52.349Z,23.70
2022-11-06T08:54:19.287Z,21.58
2022-11-06T08:56:45.992Z,18.38
2022-11-06T08:59:12.682Z,18.13
2022-11-06T09:01:39.818Z,18.00
2022-11-06T09:04:06.636Z,15.35
2022-11-06T09:06:33.342Z,15.85
2022-11-06T09:09:00.146Z,15.15
2022-11-06T09:11:26.801Z,10.98
2022-11-06T09:13:53.433Z,10.98
2022-11-06T09:16:20.308Z,10.68
2022-11-06T09:18:47.063Z,11.15
2022-11-06T09:21:13.804Z,10.63
2022-11-06T09:23:40.711Z,10.05
2022-11-06T09:26:07.366Z,9.82
2022-11-06T09:28:34.023Z,10.25
2022-11-06T09:31:02.286Z,10.55
2022-11-06T09:33:28.908Z,10.93
2022-11-06T09:35:55.575Z,9.73
2022-11-06T09:38:22.485Z,9.90
2022-11-06T09:40:53.067Z,10.73
2022-11-06T09:43:50.050Z,9.88
2022-11-06T09:46:15.351Z,9.73
2022-11-06T09:48:46.503Z,11.65
2022-11-06T09:51:35.964Z,10.35
2022-11-06T09:54:28.370Z,11.07
2022-11-06T09:57:02.462Z,11.27
2022-11-06T09:59:34.645Z,10.50
2022-11-06T10:02:01.887Z,10.15
2022-11-06T10:04:46.231Z,10.27
2022-11-06T10:07:40.899Z,12.85
2022-11-06T10:10:17.499Z,12.00
2022-11-06T10:12:47.374Z,11.20
2022-11-06T10:15:20.012Z,10.82
2022-11-06T10:18:09.498Z,9.02
2022-11-06T10:20:51.753Z,9.63
2022-11-06T10:23:32.494Z,9.63
2022-11-06T10:26:19.161Z,9.98
2022-11-06T10:28:51.509Z,9.48
2022-11-06T10:31:21.234Z,9.38
2022-11-06T10:33:59.511Z,8.40
2022-11-06T10:36:36.517Z,8.63
2022-11-06T10:39:05.609Z,8.73
2022-11-06T10:41:35.388Z,8.48
2022-11-06T10:44:08.174Z,8.95
2022-11-06T10:46:41.901Z,8.98
2022-11-06T10:49:21.439Z,8.85
2022-11-06T10:51:56.247Z,9.23
2022-11-06T10:54:34.871Z,10.10
2022-11-06T10:57:44.738Z,9.02
2022-11-06T11:00:13.395Z,8.63
2022-11-06T11:02:48.255Z,8.65
2022-11-06T11:05:18.288Z,8.55
2022-11-06T11:07:47.972Z,8.52
2022-11-06T11:10:23.909Z,9.88
2022-11-06T11:12:56.195Z,8.20
2022-11-06T11:15:25.155Z,7.88
2022-11-06T11:18:09.235Z,8.85
2022-11-06T11:20:38.269Z,8.10
2022-11-06T11:23:23.193Z,8.25
2022-11-06T11:25:55.762Z,8.90
2022-11-06T11:28:33.264Z,8.88
2022-11-06T11:31:11.237Z,8.77
2022-11-06T11:33:40.568Z,8.70
2022-11-06T11:36:10.004Z,8.88
2022-11-06T11:38:40.277Z,8.75
2022-11-06T11:41:22.129Z,8.38
2022-11-06T11:44:19.067Z,8.93
2022-11-06T11:46:49.660Z,8.80
2022-11-06T11:49:31.474Z,8.40
2022-11-06T11:52:01.186Z,8.65
2022-11-06T11:54:31.881Z,9.02
2022-11-06T11:57:18.058Z,8.10
2022-11-06T11:59:49.076Z,8.25
2022-11-06T12:02:26.906Z,9.00
2022-11-06T12:05:00.985Z,8.65
2022-11-06T12:07:39.808Z,9.73
2022-11-06T12:10:32.619Z,9.25
2022-11-06T12:13:02.379Z,8.40
2022-11-06T12:15:47.926Z,9.15
2022-11-06T12:18:18.233Z,9.98
2022-11-06T12:21:07.183Z,9.48
2022-11-06T12:23:40.965Z,9.45
2022-11-06T12:26:55.884Z,9.10
2022-11-06T12:29:25.002Z,9.55
2022-11-06T12:32:28.467Z,8.30
2022-11-06T12:35:03.670Z,9.65
2022-11-06T12:37:30.257Z,8.20
2022-11-06T12:40:04.674Z,9.68
2022-11-06T12:42:34.619Z,9.13
2022-11-06T12:45:01.735Z,12.20
2022-11-06T12:47:46.338Z,10.20
2022-11-06T12:50:32.129Z,10.30
2022-11-06T12:53:20.415Z,9.60
2022-11-06T12:55:58.499Z,11.90
2022-11-06T12:58:51.430Z,12.52
2022-11-06T13:01:18.026Z,11.20
2022-11-06T13:04:13.920Z,9.50
2022-11-06T13:07:06.706Z,11.50
2022-11-06T13:09:48.243Z,15.10
2022-11-06T13:12:34.378Z,10.85
2022-11-06T13:15:26.009Z,11.25
2022-11-06T13:18:05.904Z,10.05
2022-11-06T13:21:06.974Z,8.38
2022-11-06T13:23:41.427Z,9.45
2022-11-06T13:26:36.589Z,9.07
2022-11-06T13:29:05.817Z,9.63
2022-11-06T13:31:41.784Z,9.73
2022-11-06T13:34:17.031Z,9.23
2022-11-06T13:36:45.377Z,9.90
2022-11-06T13:39:28.641Z,9.38
2022-11-06T13:41:56.643Z,9.93
2022-11-06T13:44:24.482Z,10.35
2022-11-06T13:47:09.042Z,9.73
2022-11-06T13:50:06.796Z,9.70
2022-11-06T13:52:43.625Z,10.05
2022-11-06T13:55:15.171Z,11.32
2022-11-06T13:58:03.345Z,10.38
2022-11-06T14:00:35.675Z,10.48
2022-11-06T14:03:13.641Z,8.88
2022-11-06T14:06:23.868Z,14.38
2022-11-06T14:09:00.504Z,9.68
2022-11-06T14:11:31.963Z,9.85
2022-11-06T14:14:08.314Z,11.45
2022-11-06T14:16:38.190Z,9.88
2022-11-06T14:19:12.560Z,8.43
2022-11-06T14:21:47.140Z,12.68
2022-11-06T14:24:20.022Z,11.25
2022-11-06T14:26:49.113Z,14.13
2022-11-06T14:29:30.637Z,13.55
2022-11-06T14:32:36.243Z,12.55
2022-11-06T14:35:31.461Z,11.27
2022-11-06T14:38:10.729Z,10.52
2022-11-06T14:40:38.886Z,9.02
2022-11-06T14:43:20.200Z,9.40
2022-11-06T14:45:54.118Z,9.43
2022-11-06T14:48:49.219Z,9.18
2022-11-06T14:51:17.525Z,8.57
2022-11-06T14:53:55.343Z,9.10
2022-11-06T14:56:29.049Z,10.32
2022-11-06T14:59:09.019Z,10.45
2022-11-06T15:01:37.310Z,9.68
2022-11-06T15:04:06.750Z,10.50
2022-11-06T15:06:33.386Z,10.00
2022-11-06T15:09:05.835Z,9.88
2022-11-06T15:11:32.547Z,11.38
2022-11-06T15:14:01.116Z,10.38
2022-11-06T15:17:16.693Z,10.13
2022-11-06T15:20:05.290Z,10.68
2022-11-06T15:22:40.091Z,10.57
2022-11-06T15:25:20.493Z,10.63
2022-11-06T15:27:56.770Z,10.00
2022-11-06T15:30:23.555Z,9.23
2022-11-06T15:32:53.451Z,10.15
2022-11-06T15:35:24.604Z,10.18
2022-11-06T15:38:17.125Z,10.32
2022-11-06T15:40:45.785Z,10.57
2022-11-06T15:43:34.056Z,10.13
2022-11-06T15:46:16.000Z,10.95
2022-11-06T15:48:43.564Z,12.23
2022-11-06T15:51:29.956Z,10.65
2022-11-06T15:53:56.696Z,11.75
2022-11-06T15:56:29.574Z,12.50
2022-11-06T15:59:07.864Z,12.70
2022-11-06T16:01:34.731Z,12.15
2022-11-06T16:04:06.043Z,13.00
2022-11-06T16:06:33.594Z,12.57
2022-11-06T16:09:02.015Z,12.52
2022-11-06T16:11:29.501Z,13.48
2022-11-06T16:13:56.394Z,13.40
2022-11-06T16:16:34.419Z,13.52
2022-11-06T16:19:03.169Z,13.45
2022-11-06T16:21:33.034Z,13.77
2022-11-06T16:24:09.859Z,16.00
2022-11-06T16:26:39.041Z,15.65
2022-11-06T16:29:12.890Z,17.95
2022-11-06T16:31:40.181Z,21.13
2022-11-06T16:34:19.637Z,17.30
2022-11-06T16:36:56.772Z,24.23
2022-11-06T16:39:40.195Z,25.52
2022-11-06T16:42:29.501Z,26.48
2022-11-06T16:45:08.573Z,25.77
2022-11-06T16:47:35.339Z,25.23
2022-11-06T16:50:02.719Z,25.08
2022-11-06T16:52:39.418Z,24.15
2022-11-06T16:55:16.752Z,25.77
2022-11-06T16:57:54.784Z,25.80
2022-11-06T17:00:21.327Z,26.65
2022-11-06T17:02:56.815Z,25.75
2022-11-06T17:05:29.244Z,19.35
2022-11-06T17:08:23.343Z,17.88
2022-11-06T17:10:56.011Z,18.15
2022-11-06T17:13:28.318Z,17.15
2022-11-06T17:16:00.386Z,18.70
2022-11-06T17:18:38.370Z,16.63
2022-11-06T17:21:16.689Z,17.02
2022-11-06T17:23:44.750Z,18.35
2022-11-06T17:26:17.417Z,16.98
2022-11-06T17:28:44.526Z,17.92
2022-11-06T17:31:16.931Z,15.88
2022-11-06T17:33:44.140Z,16.83
2022-11-06T17:36:19.685Z,16.38
2022-11-06T17:38:47.030Z,17.40
2022-11-06T17:41:29.770Z,17.55
2022-11-06T17:44:06.332Z,17.80
2022-11-06T17:46:44.955Z,16.75
2022-11-06T17:49:17.699Z,17.80
2022-11-06T17:52:01.513Z,17.33
2022-11-06T17:54:33.656Z,17.88
2022-11-06T17:57:03.269Z,17.27
2022-11-06T17:59:30.738Z,17.83
2022-11-06T18:01:57.906Z,17.70
2022-11-06T18:04:27.518Z,17.13
2022-11-06T18:06:54.704Z,16.15
2022-11-06T18:09:23.671Z,16.00
2022-11-06T18:11:51.316Z,15.95
2022-11-06T18:14:18.351Z,15.73
2022-11-06T18:16:45.105Z,15.98
2022-11-06T18:19:15.500Z,14.50
2022-11-06T18:21:42.168Z,15.57
2022-11-06T18:24:09.142Z,14.50
2022-11-06T18:26:38.982Z,16.08
2022-11-06T18:29:10.292Z,15.77
2022-11-06T18:31:37.178Z,16.02
2022-11-06T18:34:05.291Z,14.13
2022-11-06T18:36:33.099Z,15.20
2022-11-06T18:38:59.931Z,15.88
2022-11-06T18:41:27.043Z,15.10
2022-11-06T18:43:57.745Z,14.18
2022-11-06T18:46:26.983Z,16.02
2022-11-06T18:48:59.763Z,15.28
2022-11-06T18:51:35.569Z,15.55
2022-11-06T18:54:05.817Z,16.63
2022-11-06T18:56:33.962Z,18.33
2022-11-06T18:59:00.708Z,16.42
2022-11-06T19:01:28.902Z,17.30
2022-11-06T19:03:56.057Z,16.55
2022-11-06T19:06:22.697Z,17.23
2022-11-06T19:08:49.511Z,17.05
2022-11-06T19:11:18.113Z,16.83
2022-11-06T19:13:48.205Z,16.67
2022-11-06T19:16:19.000Z,16.83
2022-11-06T19:18:46.149Z,16.10
2022-11-06T19:21:13.920Z,15.98
2022-11-06T19:23:43.282Z,15.63
2022-11-06T19:26:32.409Z,16.55
2022-11-06T19:29:00.506Z,16.33
2022-11-06T19:31:29.569Z,15.43
2022-11-06T19:33:58.117Z,17.02
2022-11-06T19:36:25.555Z,16.45
2022-11-06T19:38:53.402Z,17.20
2022-11-06T19:41:20.545Z,16.95
2022-11-06T19:43:47.318Z,16.60
2022-11-06T19:46:18.239Z,16.80
2022-11-06T19:48:47.950Z,16.55
2022-11-06T19:51:16.308Z,15.95
2022-11-06T19:53:43.205Z,17.25
2022-11-06T19:56:12.774Z,15.57
2022-11-06T19:58:39.454Z,16.85
2022-11-06T20:01:08.084Z,17.05
2022-11-06T20:03:35.607Z,16.23
2022-11-06T20:06:07.829Z,17.60
2022-11-06T20:08:37.062Z,16.13
2022-11-06T20:11:09.919Z,16.98
2022-11-06T20:13:36.686Z,17.15
2022-11-06T20:16:09.088Z,16.42
2022-11-06T20:18:36.546Z,16.50
2022-11-06T20:21:08.084Z,15.65
2022-11-06T20:23:36.446Z,16.05
2022-11-06T20:26:03.992Z,16.60
2022-11-06T20:28:31.259Z,16.25
2022-11-06T20:30:57.875Z,15.48
2022-11-06T20:33:25.087Z,16.88
2022-11-06T20:35:51.988Z,15.85
2022-11-06T20:38:18.698Z,15.95
2022-11-06T20:40:45.629Z,15.27
2022-11-06T20:43:12.814Z,15.85
2022-11-06T20:45:39.959Z,15.68
2022-11-06T20:48:09.297Z,14.65
2022-11-06T20:50:36.226Z,15.43
2022-11-06T20:53:03.552Z,14.95
2022-11-06T20:55:30.475Z,15.77
2022-11-06T20:57:57.311Z,16.45
2022-11-06T21:00:24.517Z,15.98
2022-11-06T21:02:53.545Z,15.43
2022-11-06T21:05:23.125Z,16.33
2022-11-06T21:07:49.747Z,16.05
2022-11-06T21:10:17.258Z,17.05
2022-11-06T21:12:44.074Z,16.95
2022-11-06T21:15:10.760Z,17.63
2022-11-06T21:17:41.774Z,18.20
2022-11-06T21:20:09.130Z,19.90
2022-11-06T21:22:35.735Z,16.00
2022-11-06T21:25:02.656Z,17.60
2022-11-06T21:27:30.497Z,16.85
2022-11-06T21:29:58.344Z,15.57
2022-11-06T21:32:25.449Z,16.05
2022-11-06T21:34:52.214Z,16.02
2022-11-06T21:37:18.925Z,16.40
2022-11-06T21:39:46.603Z,17.02
2022-11-06T21:42:13.466Z,17.95
2022-11-06T21:44:40.188Z,16.40
2022-11-06T21:47:06.835Z,14.90
2022-11-06T21:49:33.596Z,15.57
2022-11-06T21:52:21.993Z,17.38
2022-11-06T21:55:10.708Z,15.75
2022-11-06T21:57:37.479Z,18.13
2022-11-06T22:00:04.679Z,17.00
2022-11-06T22:02:31.395Z,17.85
2022-11-06T22:04:58.091Z,16.02
2022-11-06T22:07:25.212Z,18.45
2022-11-06T22:09:52.210Z,17.73
2022-11-06T22:12:18.895Z,16.50
2022-11-06T22:14:45.811Z,16.40
2022-11-06T22:17:12.390Z,16.63
2022-11-06T22:19:39.912Z,18.15
2022-11-06T22:22:06.665Z,17.35
2022-11-06T22:24:33.277Z,19.45
2022-11-06T22:27:00.106Z,19.27
2022-11-06T22:29:26.784Z,17.73
2022-11-06T22:31:53.366Z,19.65
2022-11-06T22:34:20.002Z,19.20
2022-11-06T22:36:46.782Z,18.73
2022-11-06T22:39:13.448Z,18.33
2022-11-06T22:41:42.002Z,20.13
2022-11-06T22:44:08.876Z,20.20
2022-11-06T22:46:35.824Z,19.42
2022-11-06T22:49:04.339Z,19.65
2022-11-06T22:51:32.679Z,17.48
2022-11-06T22:54:00.533Z,19.52
2022-11-06T22:56:28.574Z,18.33
2022-11-06T22:58:57.940Z,18.27
2022-11-06T23:01:26.917Z,18.23
2022-11-06T23:03:56.938Z,15.80
2022-11-06T23:06:25.135Z,18.10
2022-11-06T23:08:54.739Z,19.70
2022-11-06T23:11:23.354Z,19.27
2022-11-06T23:13:50.750Z,18.27
2022-11-06T23:16:43.434Z,18.92
2022-11-06T23:19:12.504Z,18.85
2022-11-06T23:21:40.039Z,17.83
2022-11-06T23:24:07.407Z,17.15
2022-11-06T23:26:34.450Z,20.17
2022-11-06T23:29:01.112Z,18.20
2022-11-06T23:31:28.020Z,19.13
2022-11-06T23:33:55.850Z,20.70
2022-11-06T23:36:22.553Z,20.05
2022-11-06T23:38:53.123Z,18.63
2022-11-06T23:41:38.344Z,18.75
2022-11-06T23:44:05.291Z,18.63
2022-11-06T23:46:33.265Z,20.70
2022-11-06T23:49:00.357Z,18.77
2022-11-06T23:51:28.219Z,19.70
2022-11-06T23:53:55.248Z,20.48
2022-11-06T23:56:21.865Z,20.30
2022-11-06T23:58:48.595Z,19.73
